sensor_id;sensor_type;location;lat;lon;timestamp;temperature;humidity
24326;DHT22;12448;45.532;5.290;2024-03-08T01:11:35;8.40;99.90
24326;DHT22;12448;45.532;5.290;2024-03-08T01:51:53;8.30;99.90
24326;DHT22;12448;45.532;5.290;2024-03-08T02:05:33;8.30;99.90
24326;DHT22;12448;45.532;5.290;2024-03-08T02:12:05;8.30;99.90
24326;DHT22;12448;45.532;5.290;2024-03-08T02:14:37;8.30;99.90
24326;DHT22;12448;45.532;5.290;2024-03-08T02:17:31;8.30;99.90
24326;DHT22;12448;45.532;5.290;2024-03-08T02:20:56;8.30;99.90
24326;DHT22;12448;45.532;5.290;2024-03-08T02:23:18;8.30;99.90
24326;DHT22;12448;45.532;5.290;2024-03-08T02:25:45;8.20;99.90
24326;DHT22;12448;45.532;5.290;2024-03-08T02:29:08;8.20;99.90
24326;DHT22;12448;45.532;5.290;2024-03-08T03:38:05;7.60;99.90
24326;DHT22;12448;45.532;5.290;2024-03-08T03:51:40;7.60;99.90
24326;DHT22;12448;45.532;5.290;2024-03-08T03:58:11;7.60;99.90
24326;DHT22;12448;45.532;5.290;2024-03-08T04:00:57;7.60;99.90
24326;DHT22;12448;45.532;5.290;2024-03-08T04:03:32;7.60;99.90
24326;DHT22;12448;45.532;5.290;2024-03-08T04:06:09;7.60;99.90
24326;DHT22;12448;45.532;5.290;2024-03-08T04:26:49;7.50;99.90
24326;DHT22;12448;45.532;5.290;2024-03-08T04:32:56;7.50;99.90
24326;DHT22;12448;45.532;5.290;2024-03-08T04:43:35;7.50;99.90
24326;DHT22;12448;45.532;5.290;2024-03-08T04:49:55;7.40;99.90
24326;DHT22;12448;45.532;5.290;2024-03-08T04:52:34;7.40;99.90
24326;DHT22;12448;45.532;5.290;2024-03-08T04:55:23;7.40;99.80
24326;DHT22;12448;45.532;5.290;2024-03-08T04:59:05;7.50;99.80
24326;DHT22;12448;45.532;5.290;2024-03-08T05:01:22;7.40;99.70
24326;DHT22;12448;45.532;5.290;2024-03-08T05:03:48;7.40;99.60
24326;DHT22;12448;45.532;5.290;2024-03-08T05:06:22;7.40;99.60
24326;DHT22;12448;45.532;5.290;2024-03-08T05:08:49;7.40;99.40
24326;DHT22;12448;45.532;5.290;2024-03-08T05:11:14;7.90;99.50
24326;DHT22;12448;45.532;5.290;2024-03-08T05:17:10;7.40;99.20
24326;DHT22;12448;45.532;5.290;2024-03-08T05:19:38;7.40;99.10
24326;DHT22;12448;45.532;5.290;2024-03-08T05:22:04;7.30;99.00
24326;DHT22;12448;45.532;5.290;2024-03-08T05:28:14;7.30;99.30
24326;DHT22;12448;45.532;5.290;2024-03-08T05:30:42;7.30;98.80
24326;DHT22;12448;45.532;5.290;2024-03-08T05:33:11;7.20;98.70
24326;DHT22;12448;45.532;5.290;2024-03-08T05:36:41;7.20;98.70
24326;DHT22;12448;45.532;5.290;2024-03-08T05:39:28;7.20;98.70
24326;DHT22;12448;45.532;5.290;2024-03-08T05:43:14;7.20;98.60
24326;DHT22;12448;45.532;5.290;2024-03-08T05:46:03;7.20;98.60
24326;DHT22;12448;45.532;5.290;2024-03-08T05:52:22;7.20;98.50
24326;DHT22;12448;45.532;5.290;2024-03-08T07:35:12;7.50;98.10
24326;DHT22;12448;45.532;5.290;2024-03-08T07:38:01;7.50;98.00
24326;DHT22;12448;45.532;5.290;2024-03-08T07:40:50;7.60;98.10
24326;DHT22;12448;45.532;5.290;2024-03-08T07:50:30;7.80;98.00
24326;DHT22;12448;45.532;5.290;2024-03-08T07:53:10;7.80;97.90
24326;DHT22;12448;45.532;5.290;2024-03-08T07:55:44;7.80;97.90
24326;DHT22;12448;45.532;5.290;2024-03-08T07:58:27;8.00;97.90
24326;DHT22;12448;45.532;5.290;2024-03-08T08:01:31;7.90;97.70
24326;DHT22;12448;45.532;5.290;2024-03-08T08:04:03;7.90;97.70
24326;DHT22;12448;45.532;5.290;2024-03-08T08:06:32;7.90;97.80
24326;DHT22;12448;45.532;5.290;2024-03-08T08:09:04;8.00;97.70
24326;DHT22;12448;45.532;5.290;2024-03-08T08:19:40;8.00;97.40
24326;DHT22;12448;45.532;5.290;2024-03-08T08:29:49;8.10;97.40
24326;DHT22;12448;45.532;5.290;2024-03-08T08:36:05;8.20;97.30
24326;DHT22;12448;45.532;5.290;2024-03-08T08:38:49;8.20;97.40
24326;DHT22;12448;45.532;5.290;2024-03-08T09:08:57;8.70;96.80
24326;DHT22;12448;45.532;5.290;2024-03-08T09:11:23;8.70;96.80
24326;DHT22;12448;45.532;5.290;2024-03-08T09:13:50;9.30;96.70
24326;DHT22;12448;45.532;5.290;2024-03-08T09:16:16;9.00;96.60
24326;DHT22;12448;45.532;5.290;2024-03-08T09:18:46;9.10;96.40
24326;DHT22;12448;45.532;5.290;2024-03-08T09:21:13;9.20;96.40
24326;DHT22;12448;45.532;5.290;2024-03-08T09:23:39;9.20;96.40
24326;DHT22;12448;45.532;5.290;2024-03-08T09:26:06;9.30;96.40
24326;DHT22;12448;45.532;5.290;2024-03-08T09:28:35;9.40;96.60
24326;DHT22;12448;45.532;5.290;2024-03-08T09:31:01;9.60;96.00
24326;DHT22;12448;45.532;5.290;2024-03-08T09:33:26;9.50;95.80
24326;DHT22;12448;45.532;5.290;2024-03-08T09:35:54;9.50;95.90
24326;DHT22;12448;45.532;5.290;2024-03-08T09:38:19;9.60;95.80
24326;DHT22;12448;45.532;5.290;2024-03-08T09:40:46;9.90;95.70
24326;DHT22;12448;45.532;5.290;2024-03-08T09:43:11;10.00;95.50
24326;DHT22;12448;45.532;5.290;2024-03-08T09:45:37;9.60;95.30
24326;DHT22;12448;45.532;5.290;2024-03-08T09:48:10;9.90;95.30
24326;DHT22;12448;45.532;5.290;2024-03-08T09:50:40;9.70;95.30
24326;DHT22;12448;45.532;5.290;2024-03-08T09:53:11;9.70;95.20
24326;DHT22;12448;45.532;5.290;2024-03-08T09:55:37;10.10;95.10
24326;DHT22;12448;45.532;5.290;2024-03-08T09:58:06;9.80;95.00
24326;DHT22;12448;45.532;5.290;2024-03-08T10:00:56;9.80;94.80
24326;DHT22;12448;45.532;5.290;2024-03-08T10:03:27;10.00;95.00
24326;DHT22;12448;45.532;5.290;2024-03-08T10:05:53;10.40;95.10
24326;DHT22;12448;45.532;5.290;2024-03-08T10:08:22;10.10;95.10
24326;DHT22;12448;45.532;5.290;2024-03-08T10:10:47;10.20;95.10
24326;DHT22;12448;45.532;5.290;2024-03-08T10:13:15;10.10;95.10
24326;DHT22;12448;45.532;5.290;2024-03-08T10:15:44;10.50;94.90
24326;DHT22;12448;45.532;5.290;2024-03-08T10:18:10;10.40;94.60
24326;DHT22;12448;45.532;5.290;2024-03-08T10:20:36;10.50;94.50
24326;DHT22;12448;45.532;5.290;2024-03-08T10:23:02;10.60;94.60
24326;DHT22;12448;45.532;5.290;2024-03-08T10:25:33;10.70;94.70
24326;DHT22;12448;45.532;5.290;2024-03-08T10:27:59;10.80;94.60
24326;DHT22;12448;45.532;5.290;2024-03-08T10:30:25;10.90;94.40
24326;DHT22;12448;45.532;5.290;2024-03-08T10:32:50;10.90;93.90
24326;DHT22;12448;45.532;5.290;2024-03-08T10:35:17;10.90;93.70
24326;DHT22;12448;45.532;5.290;2024-03-08T10:37:48;11.00;93.80
24326;DHT22;12448;45.532;5.290;2024-03-08T10:40:19;10.90;93.70
24326;DHT22;12448;45.532;5.290;2024-03-08T10:42:58;11.10;93.40
24326;DHT22;12448;45.532;5.290;2024-03-08T10:45:31;11.10;93.30
24326;DHT22;12448;45.532;5.290;2024-03-08T10:50:49;11.20;93.50
24326;DHT22;12448;45.532;5.290;2024-03-08T10:53:19;11.10;93.60
24326;DHT22;12448;45.532;5.290;2024-03-08T10:55:49;11.20;93.50
24326;DHT22;12448;45.532;5.290;2024-03-08T10:58:15;11.00;93.40
24326;DHT22;12448;45.532;5.290;2024-03-08T11:00:42;11.00;93.50
24326;DHT22;12448;45.532;5.290;2024-03-08T11:06:16;10.80;93.10
24326;DHT22;12448;45.532;5.290;2024-03-08T11:08:42;10.70;93.20
24326;DHT22;12448;45.532;5.290;2024-03-08T11:11:30;10.40;93.40
24326;DHT22;12448;45.532;5.290;2024-03-08T11:13:57;10.50;93.60
24326;DHT22;12448;45.532;5.290;2024-03-08T11:19:06;10.30;93.90
24326;DHT22;12448;45.532;5.290;2024-03-08T11:22:00;10.20;94.00
24326;DHT22;12448;45.532;5.290;2024-03-08T11:24:26;10.20;94.20
24326;DHT22;12448;45.532;5.290;2024-03-08T11:26:56;10.80;94.50
24326;DHT22;12448;45.532;5.290;2024-03-08T11:32:17;10.10;94.40
24326;DHT22;12448;45.532;5.290;2024-03-08T11:34:46;10.00;94.40
24326;DHT22;12448;45.532;5.290;2024-03-08T11:37:21;9.90;94.50
24326;DHT22;12448;45.532;5.290;2024-03-08T11:39:47;9.90;94.50
24326;DHT22;12448;45.532;5.290;2024-03-08T11:42:15;9.80;94.60
24326;DHT22;12448;45.532;5.290;2024-03-08T11:44:45;9.90;94.60
24326;DHT22;12448;45.532;5.290;2024-03-08T11:47:11;10.40;94.90
24326;DHT22;12448;45.532;5.290;2024-03-08T11:49:38;10.20;94.90
24326;DHT22;12448;45.532;5.290;2024-03-08T11:52:04;10.60;95.00
24326;DHT22;12448;45.532;5.290;2024-03-08T11:54:32;10.00;94.80
24326;DHT22;12448;45.532;5.290;2024-03-08T11:56:59;10.00;94.70
24326;DHT22;12448;45.532;5.290;2024-03-08T11:59:30;9.90;94.70
24326;DHT22;12448;45.532;5.290;2024-03-08T12:02:06;9.90;94.80
24326;DHT22;12448;45.532;5.290;2024-03-08T12:04:32;10.00;94.80
24326;DHT22;12448;45.532;5.290;2024-03-08T12:07:02;10.00;94.70
24326;DHT22;12448;45.532;5.290;2024-03-08T12:09:28;10.00;94.70
24326;DHT22;12448;45.532;5.290;2024-03-08T12:11:54;10.00;94.70
24326;DHT22;12448;45.532;5.290;2024-03-08T12:14:20;10.00;94.70
24326;DHT22;12448;45.532;5.290;2024-03-08T12:16:46;10.10;94.90
24326;DHT22;12448;45.532;5.290;2024-03-08T12:19:12;10.10;94.80
24326;DHT22;12448;45.532;5.290;2024-03-08T12:21:38;10.20;94.90
24326;DHT22;12448;45.532;5.290;2024-03-08T12:24:10;10.30;95.10
24326;DHT22;12448;45.532;5.290;2024-03-08T12:26:37;10.40;95.10
24326;DHT22;12448;45.532;5.290;2024-03-08T12:29:20;10.60;94.90
24326;DHT22;12448;45.532;5.290;2024-03-08T12:31:50;10.60;94.70
24326;DHT22;12448;45.532;5.290;2024-03-08T12:34:17;10.60;94.60
24326;DHT22;12448;45.532;5.290;2024-03-08T12:39:18;10.80;94.30
24326;DHT22;12448;45.532;5.290;2024-03-08T12:41:48;10.90;94.30
24326;DHT22;12448;45.532;5.290;2024-03-08T12:44:14;10.90;94.20
24326;DHT22;12448;45.532;5.290;2024-03-08T12:46:40;11.00;94.10
24326;DHT22;12448;45.532;5.290;2024-03-08T12:49:07;11.00;94.00
24326;DHT22;12448;45.532;5.290;2024-03-08T12:51:34;11.10;94.10
24326;DHT22;12448;45.532;5.290;2024-03-08T12:54:01;11.20;94.10
24326;DHT22;12448;45.532;5.290;2024-03-08T12:56:31;11.30;94.00
24326;DHT22;12448;45.532;5.290;2024-03-08T12:58:58;11.40;94.10
24326;DHT22;12448;45.532;5.290;2024-03-08T13:01:24;11.50;93.80
24326;DHT22;12448;45.532;5.290;2024-03-08T13:03:49;11.50;93.80
24326;DHT22;12448;45.532;5.290;2024-03-08T13:06:15;11.60;93.90
24326;DHT22;12448;45.532;5.290;2024-03-08T13:08:41;11.60;93.90
24326;DHT22;12448;45.532;5.290;2024-03-08T13:11:09;11.60;93.90
24326;DHT22;12448;45.532;5.290;2024-03-08T13:13:37;11.60;93.80
24326;DHT22;12448;45.532;5.290;2024-03-08T13:16:06;11.60;93.80
24326;DHT22;12448;45.532;5.290;2024-03-08T13:18:35;11.60;94.10
24326;DHT22;12448;45.532;5.290;2024-03-08T13:21:01;11.60;92.60
24326;DHT22;12448;45.532;5.290;2024-03-08T13:23:37;11.60;91.70
24326;DHT22;12448;45.532;5.290;2024-03-08T13:26:10;11.60;90.80
24326;DHT22;12448;45.532;5.290;2024-03-08T13:28:46;11.60;90.40
24326;DHT22;12448;45.532;5.290;2024-03-08T13:31:14;11.60;90.30
24326;DHT22;12448;45.532;5.290;2024-03-08T13:33:40;11.70;90.80
24326;DHT22;12448;45.532;5.290;2024-03-08T13:36:08;11.70;90.70
24326;DHT22;12448;45.532;5.290;2024-03-08T13:38:44;11.80;90.20
24326;DHT22;12448;45.532;5.290;2024-03-08T13:41:14;11.80;89.20
24326;DHT22;12448;45.532;5.290;2024-03-08T13:43:46;11.70;88.90
24326;DHT22;12448;45.532;5.290;2024-03-08T13:46:12;11.70;87.80
24326;DHT22;12448;45.532;5.290;2024-03-08T13:48:38;11.60;88.10
24326;DHT22;12448;45.532;5.290;2024-03-08T13:51:04;11.60;88.80
24326;DHT22;12448;45.532;5.290;2024-03-08T13:53:31;11.50;88.80
24326;DHT22;12448;45.532;5.290;2024-03-08T13:56:00;11.50;89.30
24326;DHT22;12448;45.532;5.290;2024-03-08T13:58:28;11.50;89.90
24326;DHT22;12448;45.532;5.290;2024-03-08T14:00:53;11.40;90.20
24326;DHT22;12448;45.532;5.290;2024-03-08T14:03:19;11.30;90.50
24326;DHT22;12448;45.532;5.290;2024-03-08T14:05:46;11.30;91.00
24326;DHT22;12448;45.532;5.290;2024-03-08T14:08:12;11.20;91.40
24326;DHT22;12448;45.532;5.290;2024-03-08T14:10:38;11.10;91.80
24326;DHT22;12448;45.532;5.290;2024-03-08T14:13:04;11.00;92.10
24326;DHT22;12448;45.532;5.290;2024-03-08T14:15:34;11.00;92.30
24326;DHT22;12448;45.532;5.290;2024-03-08T14:18:01;10.90;92.60
24326;DHT22;12448;45.532;5.290;2024-03-08T14:20:27;10.90;93.00
24326;DHT22;12448;45.532;5.290;2024-03-08T14:22:53;10.90;93.40
24326;DHT22;12448;45.532;5.290;2024-03-08T14:25:20;10.80;93.60
24326;DHT22;12448;45.532;5.290;2024-03-08T14:27:49;10.90;94.00
24326;DHT22;12448;45.532;5.290;2024-03-08T14:30:16;10.90;94.20
24326;DHT22;12448;45.532;5.290;2024-03-08T14:33:01;10.90;94.40
24326;DHT22;12448;45.532;5.290;2024-03-08T14:35:27;10.90;94.70
24326;DHT22;12448;45.532;5.290;2024-03-08T14:37:55;11.10;94.70
24326;DHT22;12448;45.532;5.290;2024-03-08T14:40:22;10.90;94.70
24326;DHT22;12448;45.532;5.290;2024-03-08T14:42:49;10.90;94.90
24326;DHT22;12448;45.532;5.290;2024-03-08T14:45:15;10.90;95.00
24326;DHT22;12448;45.532;5.290;2024-03-08T14:47:42;10.90;95.20
24326;DHT22;12448;45.532;5.290;2024-03-08T14:50:08;11.10;95.20
24326;DHT22;12448;45.532;5.290;2024-03-08T14:52:37;10.80;95.20
24326;DHT22;12448;45.532;5.290;2024-03-08T14:55:05;10.90;95.40
24326;DHT22;12448;45.532;5.290;2024-03-08T14:57:32;10.90;95.50
24326;DHT22;12448;45.532;5.290;2024-03-08T14:59:58;10.80;95.60
24326;DHT22;12448;45.532;5.290;2024-03-08T15:02:31;10.80;95.70
24326;DHT22;12448;45.532;5.290;2024-03-08T15:04:57;10.80;95.80
24326;DHT22;12448;45.532;5.290;2024-03-08T15:07:24;10.80;95.90
24326;DHT22;12448;45.532;5.290;2024-03-08T15:09:51;10.80;96.00
24326;DHT22;12448;45.532;5.290;2024-03-08T15:12:16;10.80;96.00
24326;DHT22;12448;45.532;5.290;2024-03-08T15:14:42;11.00;96.20
24326;DHT22;12448;45.532;5.290;2024-03-08T15:17:10;10.80;96.50
24326;DHT22;12448;45.532;5.290;2024-03-08T15:19:44;10.80;96.20
24326;DHT22;12448;45.532;5.290;2024-03-08T15:22:10;11.10;96.30
24326;DHT22;12448;45.532;5.290;2024-03-08T15:24:36;11.30;96.40
24326;DHT22;12448;45.532;5.290;2024-03-08T15:27:03;10.70;96.30
24326;DHT22;12448;45.532;5.290;2024-03-08T15:29:28;10.70;96.50
24326;DHT22;12448;45.532;5.290;2024-03-08T15:31:54;11.10;96.80
24326;DHT22;12448;45.532;5.290;2024-03-08T15:34:20;10.80;97.00
24326;DHT22;12448;45.532;5.290;2024-03-08T15:36:50;10.70;97.10
24326;DHT22;12448;45.532;5.290;2024-03-08T15:39:17;10.70;97.30
24326;DHT22;12448;45.532;5.290;2024-03-08T15:41:46;10.70;97.40
24326;DHT22;12448;45.532;5.290;2024-03-08T15:44:12;10.60;97.40
24326;DHT22;12448;45.532;5.290;2024-03-08T15:46:39;10.50;97.60
24326;DHT22;12448;45.532;5.290;2024-03-08T15:49:08;10.80;97.80
24326;DHT22;12448;45.532;5.290;2024-03-08T15:51:34;10.50;98.00
24326;DHT22;12448;45.532;5.290;2024-03-08T15:54:02;10.30;98.00
24326;DHT22;12448;45.532;5.290;2024-03-08T15:56:30;10.40;98.50
24326;DHT22;12448;45.532;5.290;2024-03-08T15:58:57;10.30;98.30
24326;DHT22;12448;45.532;5.290;2024-03-08T16:01:23;10.80;98.60
24326;DHT22;12448;45.532;5.290;2024-03-08T16:03:50;10.30;98.70
24326;DHT22;12448;45.532;5.290;2024-03-08T16:06:17;10.20;98.80
24326;DHT22;12448;45.532;5.290;2024-03-08T16:08:47;10.40;98.90
24326;DHT22;12448;45.532;5.290;2024-03-08T16:11:13;10.20;99.00
24326;DHT22;12448;45.532;5.290;2024-03-08T16:13:39;10.30;99.20
24326;DHT22;12448;45.532;5.290;2024-03-08T16:16:04;10.20;99.40
24326;DHT22;12448;45.532;5.290;2024-03-08T16:18:30;10.10;99.50
24326;DHT22;12448;45.532;5.290;2024-03-08T16:20:57;10.10;99.60
24326;DHT22;12448;45.532;5.290;2024-03-08T16:23:24;10.70;99.90
24326;DHT22;12448;45.532;5.290;2024-03-08T16:25:50;10.10;99.90
24326;DHT22;12448;45.532;5.290;2024-03-08T16:28:16;10.10;99.90
24326;DHT22;12448;45.532;5.290;2024-03-08T16:30:43;9.90;99.90
24326;DHT22;12448;45.532;5.290;2024-03-08T16:33:14;10.00;99.90
24326;DHT22;12448;45.532;5.290;2024-03-08T16:35:40;10.10;99.90
24326;DHT22;12448;45.532;5.290;2024-03-08T16:38:12;10.00;99.90
24326;DHT22;12448;45.532;5.290;2024-03-08T16:40:39;10.00;99.90
24326;DHT22;12448;45.532;5.290;2024-03-08T16:43:05;10.00;99.90
24326;DHT22;12448;45.532;5.290;2024-03-08T16:45:30;9.90;99.90
24326;DHT22;12448;45.532;5.290;2024-03-08T16:47:56;9.90;99.90
24326;DHT22;12448;45.532;5.290;2024-03-08T16:50:22;10.10;99.90
24326;DHT22;12448;45.532;5.290;2024-03-08T16:52:48;9.80;99.90
24326;DHT22;12448;45.532;5.290;2024-03-08T16:55:16;9.80;99.90
24326;DHT22;12448;45.532;5.290;2024-03-08T16:57:43;9.80;99.90
24326;DHT22;12448;45.532;5.290;2024-03-08T17:00:20;9.70;99.90
24326;DHT22;12448;45.532;5.290;2024-03-08T17:02:53;9.70;99.90
24326;DHT22;12448;45.532;5.290;2024-03-08T17:05:18;9.70;99.90
24326;DHT22;12448;45.532;5.290;2024-03-08T17:07:45;9.60;99.90
24326;DHT22;12448;45.532;5.290;2024-03-08T17:10:47;9.60;99.90
24326;DHT22;12448;45.532;5.290;2024-03-08T17:13:06;9.60;99.90
24326;DHT22;12448;45.532;5.290;2024-03-08T17:15:33;9.60;99.90
24326;DHT22;12448;45.532;5.290;2024-03-08T17:18:00;9.70;99.90
24326;DHT22;12448;45.532;5.290;2024-03-08T17:20:31;9.60;99.90
24326;DHT22;12448;45.532;5.290;2024-03-08T17:22:59;9.60;99.90
24326;DHT22;12448;45.532;5.290;2024-03-08T17:25:26;9.60;99.90
24326;DHT22;12448;45.532;5.290;2024-03-08T17:27:53;9.60;99.90
24326;DHT22;12448;45.532;5.290;2024-03-08T17:30:21;9.60;99.90
24326;DHT22;12448;45.532;5.290;2024-03-08T17:32:53;9.60;99.90
24326;DHT22;12448;45.532;5.290;2024-03-08T17:35:27;9.50;99.90
24326;DHT22;12448;45.532;5.290;2024-03-08T17:37:55;9.50;99.90
24326;DHT22;12448;45.532;5.290;2024-03-08T17:40:28;9.50;99.90
24326;DHT22;12448;45.532;5.290;2024-03-08T17:42:57;9.60;99.90
24326;DHT22;12448;45.532;5.290;2024-03-08T17:45:26;9.50;99.90
24326;DHT22;12448;45.532;5.290;2024-03-08T17:47:53;9.40;99.90
24326;DHT22;12448;45.532;5.290;2024-03-08T17:50:21;9.50;99.90
24326;DHT22;12448;45.532;5.290;2024-03-08T17:52:47;9.50;99.90
24326;DHT22;12448;45.532;5.290;2024-03-08T17:55:14;9.50;99.90
24326;DHT22;12448;45.532;5.290;2024-03-08T17:57:45;9.50;99.90
24326;DHT22;12448;45.532;5.290;2024-03-08T18:00:12;9.50;99.90
24326;DHT22;12448;45.532;5.290;2024-03-08T18:02:50;9.50;99.90
24326;DHT22;12448;45.532;5.290;2024-03-08T18:05:20;9.80;99.90
24326;DHT22;12448;45.532;5.290;2024-03-08T18:07:53;9.50;99.90
24326;DHT22;12448;45.532;5.290;2024-03-08T18:10:19;9.80;99.90
24326;DHT22;12448;45.532;5.290;2024-03-08T18:12:46;9.50;99.90
24326;DHT22;12448;45.532;5.290;2024-03-08T18:15:13;9.40;99.90
24326;DHT22;12448;45.532;5.290;2024-03-08T18:17:48;9.40;99.90
24326;DHT22;12448;45.532;5.290;2024-03-08T18:20:18;9.50;99.90
24326;DHT22;12448;45.532;5.290;2024-03-08T18:22:47;9.40;99.90
24326;DHT22;12448;45.532;5.290;2024-03-08T18:25:13;9.40;99.90
24326;DHT22;12448;45.532;5.290;2024-03-08T18:27:43;9.40;99.90
24326;DHT22;12448;45.532;5.290;2024-03-08T18:30:10;9.40;99.90
24326;DHT22;12448;45.532;5.290;2024-03-08T18:32:46;9.30;99.90
24326;DHT22;12448;45.532;5.290;2024-03-08T18:35:15;9.30;99.90
24326;DHT22;12448;45.532;5.290;2024-03-08T18:37:45;9.30;99.90
24326;DHT22;12448;45.532;5.290;2024-03-08T18:40:12;9.30;99.90
24326;DHT22;12448;45.532;5.290;2024-03-08T18:42:42;9.30;99.90
24326;DHT22;12448;45.532;5.290;2024-03-08T18:45:09;9.30;99.90
24326;DHT22;12448;45.532;5.290;2024-03-08T18:47:40;9.30;99.90
24326;DHT22;12448;45.532;5.290;2024-03-08T18:50:08;9.30;99.90
24326;DHT22;12448;45.532;5.290;2024-03-08T18:52:34;9.30;99.90
24326;DHT22;12448;45.532;5.290;2024-03-08T18:55:01;9.30;99.90
24326;DHT22;12448;45.532;5.290;2024-03-08T18:57:27;9.20;99.90
24326;DHT22;12448;45.532;5.290;2024-03-08T18:59:53;9.20;99.90
24326;DHT22;12448;45.532;5.290;2024-03-08T19:02:18;9.20;99.90
24326;DHT22;12448;45.532;5.290;2024-03-08T19:04:48;9.20;99.90
24326;DHT22;12448;45.532;5.290;2024-03-08T19:07:13;9.90;99.90
24326;DHT22;12448;45.532;5.290;2024-03-08T19:09:39;9.20;99.90
24326;DHT22;12448;45.532;5.290;2024-03-08T19:12:08;9.20;99.90
24326;DHT22;12448;45.532;5.290;2024-03-08T19:14:35;9.20;99.90
24326;DHT22;12448;45.532;5.290;2024-03-08T19:17:06;9.20;99.90
24326;DHT22;12448;45.532;5.290;2024-03-08T19:19:36;9.20;99.90
24326;DHT22;12448;45.532;5.290;2024-03-08T19:22:04;9.20;99.90
24326;DHT22;12448;45.532;5.290;2024-03-08T19:24:31;9.20;99.90
24326;DHT22;12448;45.532;5.290;2024-03-08T19:27:01;9.20;99.90
24326;DHT22;12448;45.532;5.290;2024-03-08T19:29:26;9.40;99.90
24326;DHT22;12448;45.532;5.290;2024-03-08T19:31:55;9.20;99.90
24326;DHT22;12448;45.532;5.290;2024-03-08T19:34:22;9.20;99.90
24326;DHT22;12448;45.532;5.290;2024-03-08T19:36:54;9.60;99.90
24326;DHT22;12448;45.532;5.290;2024-03-08T19:39:20;9.20;99.90
24326;DHT22;12448;45.532;5.290;2024-03-08T19:41:48;9.80;99.90
24326;DHT22;12448;45.532;5.290;2024-03-08T19:44:27;9.10;99.90
24326;DHT22;12448;45.532;5.290;2024-03-08T19:46:53;9.00;99.90
24326;DHT22;12448;45.532;5.290;2024-03-08T19:49:21;8.90;99.90
24326;DHT22;12448;45.532;5.290;2024-03-08T19:51:49;8.70;99.90
24326;DHT22;12448;45.532;5.290;2024-03-08T19:54:20;8.70;99.90
24326;DHT22;12448;45.532;5.290;2024-03-08T19:56:46;8.60;99.90
24326;DHT22;12448;45.532;5.290;2024-03-08T19:59:12;8.70;99.90
24326;DHT22;12448;45.532;5.290;2024-03-08T20:01:38;9.10;99.90
24326;DHT22;12448;45.532;5.290;2024-03-08T20:04:07;8.60;99.90
24326;DHT22;12448;45.532;5.290;2024-03-08T20:06:36;8.60;99.90
24326;DHT22;12448;45.532;5.290;2024-03-08T20:09:05;8.60;99.90
24326;DHT22;12448;45.532;5.290;2024-03-08T20:11:31;8.60;99.90
24326;DHT22;12448;45.532;5.290;2024-03-08T20:14:00;8.60;99.90
24326;DHT22;12448;45.532;5.290;2024-03-08T20:16:26;8.70;99.90
24326;DHT22;12448;45.532;5.290;2024-03-08T20:18:52;8.60;99.90
24326;DHT22;12448;45.532;5.290;2024-03-08T20:21:18;8.70;99.90
24326;DHT22;12448;45.532;5.290;2024-03-08T20:23:44;8.60;99.90
24326;DHT22;12448;45.532;5.290;2024-03-08T20:26:09;8.50;99.90
24326;DHT22;12448;45.532;5.290;2024-03-08T20:28:36;8.50;99.90
24326;DHT22;12448;45.532;5.290;2024-03-08T20:31:04;8.50;99.90
24326;DHT22;12448;45.532;5.290;2024-03-08T20:33:30;8.50;99.90
24326;DHT22;12448;45.532;5.290;2024-03-08T20:35:57;8.50;99.90
24326;DHT22;12448;45.532;5.290;2024-03-08T20:38:38;8.40;99.90
24326;DHT22;12448;45.532;5.290;2024-03-08T20:41:06;8.40;99.90
24326;DHT22;12448;45.532;5.290;2024-03-08T20:43:54;8.40;99.90
24326;DHT22;12448;45.532;5.290;2024-03-08T20:46:23;8.40;99.90
24326;DHT22;12448;45.532;5.290;2024-03-08T21:16:38;8.20;99.90
24326;DHT22;12448;45.532;5.290;2024-03-08T21:21:57;8.20;99.90
24326;DHT22;12448;45.532;5.290;2024-03-08T21:27:23;8.20;99.90
24326;DHT22;12448;45.532;5.290;2024-03-08T21:30:18;8.20;99.90
24326;DHT22;12448;45.532;5.290;2024-03-08T21:33:05;8.20;99.90
24326;DHT22;12448;45.532;5.290;2024-03-08T21:35:46;8.10;99.90
24326;DHT22;12448;45.532;5.290;2024-03-08T21:38:27;8.10;99.90
24326;DHT22;12448;45.532;5.290;2024-03-08T21:40:58;8.10;99.90
24326;DHT22;12448;45.532;5.290;2024-03-08T21:43:27;8.10;99.90
24326;DHT22;12448;45.532;5.290;2024-03-08T21:46:45;8.10;99.90
24326;DHT22;12448;45.532;5.290;2024-03-08T21:49:15;8.10;99.90
24326;DHT22;12448;45.532;5.290;2024-03-08T21:51:41;8.10;99.90
24326;DHT22;12448;45.532;5.290;2024-03-08T22:01:24;8.20;99.90
24326;DHT22;12448;45.532;5.290;2024-03-08T22:03:53;8.20;99.90
24326;DHT22;12448;45.532;5.290;2024-03-08T22:06:35;8.20;99.90
24326;DHT22;12448;45.532;5.290;2024-03-08T22:09:22;8.20;99.90
24326;DHT22;12448;45.532;5.290;2024-03-08T22:12:00;8.20;99.90
24326;DHT22;12448;45.532;5.290;2024-03-08T22:14:32;8.20;99.90
24326;DHT22;12448;45.532;5.290;2024-03-08T22:16:58;8.20;99.90
24326;DHT22;12448;45.532;5.290;2024-03-08T22:19:31;8.50;99.90
24326;DHT22;12448;45.532;5.290;2024-03-08T22:22:00;8.30;99.90
24326;DHT22;12448;45.532;5.290;2024-03-08T22:24:26;8.20;99.90
24326;DHT22;12448;45.532;5.290;2024-03-08T22:26:52;8.30;99.90
24326;DHT22;12448;45.532;5.290;2024-03-08T22:29:18;8.20;99.90
24326;DHT22;12448;45.532;5.290;2024-03-08T22:31:45;8.40;99.90
24326;DHT22;12448;45.532;5.290;2024-03-08T22:34:11;8.40;99.90
24326;DHT22;12448;45.532;5.290;2024-03-08T22:36:38;8.40;99.90
24326;DHT22;12448;45.532;5.290;2024-03-08T22:39:03;8.40;99.90
24326;DHT22;12448;45.532;5.290;2024-03-08T22:41:36;8.40;99.90
24326;DHT22;12448;45.532;5.290;2024-03-08T22:44:07;8.40;99.90
24326;DHT22;12448;45.532;5.290;2024-03-08T22:46:36;8.40;99.90
24326;DHT22;12448;45.532;5.290;2024-03-08T22:49:02;8.30;99.90
24326;DHT22;12448;45.532;5.290;2024-03-08T22:51:33;8.30;99.90
24326;DHT22;12448;45.532;5.290;2024-03-08T22:53:59;8.30;99.90
24326;DHT22;12448;45.532;5.290;2024-03-08T22:56:29;8.30;99.90
24326;DHT22;12448;45.532;5.290;2024-03-08T22:58:57;8.30;99.90
24326;DHT22;12448;45.532;5.290;2024-03-08T23:01:23;8.30;99.90
24326;DHT22;12448;45.532;5.290;2024-03-08T23:03:49;8.30;99.90
24326;DHT22;12448;45.532;5.290;2024-03-08T23:06:18;8.40;99.90
24326;DHT22;12448;45.532;5.290;2024-03-08T23:08:49;8.30;99.90
24326;DHT22;12448;45.532;5.290;2024-03-08T23:15:01;8.30;99.90
24326;DHT22;12448;45.532;5.290;2024-03-08T23:17:30;8.30;99.90
24326;DHT22;12448;45.532;5.290;2024-03-08T23:23:34;8.40;99.90
24326;DHT22;12448;45.532;5.290;2024-03-08T23:26:07;8.30;99.90
24326;DHT22;12448;45.532;5.290;2024-03-08T23:28:37;8.30;99.90
24326;DHT22;12448;45.532;5.290;2024-03-08T23:31:06;8.50;99.90
24326;DHT22;12448;45.532;5.290;2024-03-08T23:33:38;8.20;99.90
24326;DHT22;12448;45.532;5.290;2024-03-08T23:36:07;8.20;99.90
24326;DHT22;12448;45.532;5.290;2024-03-08T23:38:34;8.20;99.90
24326;DHT22;12448;45.532;5.290;2024-03-08T23:41:04;8.20;99.90
24326;DHT22;12448;45.532;5.290;2024-03-08T23:43:33;8.70;99.90
24326;DHT22;12448;45.532;5.290;2024-03-08T23:46:00;8.30;99.90